sensor_id;sensor_type;location;lat;lon;timestamp;P1;durP1;ratioP1;P2;durP2;ratioP2
79412;SDS011;68863;49.528;11.010;2023-05-10T00:00:29;7.00;;;3.17;;
79412;SDS011;68863;49.528;11.010;2023-05-10T00:01:29;8.02;;;3.75;;
79412;SDS011;68863;49.528;11.010;2023-05-10T00:02:29;6.82;;;3.90;;
79412;SDS011;68863;49.528;11.010;2023-05-10T00:03:29;8.40;;;4.20;;
79412;SDS011;68863;49.528;11.010;2023-05-10T00:04:30;7.57;;;4.07;;
79412;SDS011;68863;49.528;11.010;2023-05-10T00:05:31;7.65;;;3.83;;
79412;SDS011;68863;49.528;11.010;2023-05-10T00:06:34;6.88;;;3.85;;
79412;SDS011;68863;49.528;11.010;2023-05-10T00:07:34;6.47;;;3.67;;
79412;SDS011;68863;49.528;11.010;2023-05-10T00:08:35;7.40;;;4.13;;
79412;SDS011;68863;49.528;11.010;2023-05-10T00:09:35;7.78;;;4.20;;
79412;SDS011;68863;49.528;11.010;2023-05-10T00:10:35;9.20;;;4.00;;
79412;SDS011;68863;49.528;11.010;2023-05-10T00:11:37;6.80;;;3.70;;
79412;SDS011;68863;49.528;11.010;2023-05-10T00:12:37;6.57;;;3.67;;
79412;SDS011;68863;49.528;11.010;2023-05-10T00:13:37;7.63;;;3.78;;
79412;SDS011;68863;49.528;11.010;2023-05-10T00:14:38;6.10;;;3.53;;
79412;SDS011;68863;49.528;11.010;2023-05-10T00:15:38;7.05;;;4.15;;
79412;SDS011;68863;49.528;11.010;2023-05-10T00:16:38;7.07;;;3.87;;
79412;SDS011;68863;49.528;11.010;2023-05-10T00:17:39;7.45;;;4.00;;
79412;SDS011;68863;49.528;11.010;2023-05-10T00:18:39;7.82;;;4.18;;
79412;SDS011;68863;49.528;11.010;2023-05-10T00:19:40;7.82;;;4.05;;
79412;SDS011;68863;49.528;11.010;2023-05-10T00:20:40;7.30;;;3.73;;
79412;SDS011;68863;49.528;11.010;2023-05-10T00:21:40;6.70;;;3.90;;
79412;SDS011;68863;49.528;11.010;2023-05-10T00:22:41;7.45;;;4.30;;
79412;SDS011;68863;49.528;11.010;2023-05-10T00:23:41;8.30;;;4.65;;
79412;SDS011;68863;49.528;11.010;2023-05-10T00:24:41;8.90;;;4.50;;
79412;SDS011;68863;49.528;11.010;2023-05-10T00:25:42;7.60;;;3.93;;
79412;SDS011;68863;49.528;11.010;2023-05-10T00:26:42;6.97;;;4.20;;
79412;SDS011;68863;49.528;11.010;2023-05-10T00:27:42;8.40;;;4.40;;
79412;SDS011;68863;49.528;11.010;2023-05-10T00:28:43;7.25;;;3.55;;
79412;SDS011;68863;49.528;11.010;2023-05-10T00:29:43;8.80;;;4.28;;
79412;SDS011;68863;49.528;11.010;2023-05-10T00:30:43;7.30;;;3.80;;
79412;SDS011;68863;49.528;11.010;2023-05-10T00:31:44;7.13;;;4.07;;
79412;SDS011;68863;49.528;11.010;2023-05-10T00:32:44;6.90;;;4.17;;
79412;SDS011;68863;49.528;11.010;2023-05-10T00:33:44;6.95;;;3.90;;
79412;SDS011;68863;49.528;11.010;2023-05-10T00:34:45;9.38;;;4.40;;
79412;SDS011;68863;49.528;11.010;2023-05-10T00:35:45;7.27;;;3.93;;
79412;SDS011;68863;49.528;11.010;2023-05-10T00:36:45;7.17;;;3.93;;
79412;SDS011;68863;49.528;11.010;2023-05-10T00:37:46;7.63;;;4.03;;
79412;SDS011;68863;49.528;11.010;2023-05-10T00:38:46;8.57;;;4.43;;
79412;SDS011;68863;49.528;11.010;2023-05-10T00:39:49;8.00;;;4.25;;
79412;SDS011;68863;49.528;11.010;2023-05-10T00:40:49;8.70;;;4.13;;
79412;SDS011;68863;49.528;11.010;2023-05-10T00:41:49;7.68;;;4.50;;
79412;SDS011;68863;49.528;11.010;2023-05-10T00:42:50;7.75;;;4.05;;
79412;SDS011;68863;49.528;11.010;2023-05-10T00:43:50;8.77;;;4.25;;
79412;SDS011;68863;49.528;11.010;2023-05-10T00:44:50;8.10;;;4.47;;
79412;SDS011;68863;49.528;11.010;2023-05-10T00:45:54;7.63;;;3.95;;
79412;SDS011;68863;49.528;11.010;2023-05-10T00:46:54;8.52;;;3.95;;
79412;SDS011;68863;49.528;11.010;2023-05-10T00:47:55;7.75;;;4.63;;
79412;SDS011;68863;49.528;11.010;2023-05-10T00:48:55;7.22;;;3.97;;
79412;SDS011;68863;49.528;11.010;2023-05-10T00:49:56;7.82;;;3.83;;
79412;SDS011;68863;49.528;11.010;2023-05-10T00:50:57;7.53;;;3.95;;
79412;SDS011;68863;49.528;11.010;2023-05-10T00:51:57;8.00;;;3.72;;
79412;SDS011;68863;49.528;11.010;2023-05-10T00:52:58;7.88;;;4.43;;
79412;SDS011;68863;49.528;11.010;2023-05-10T00:53:59;8.20;;;3.85;;
79412;SDS011;68863;49.528;11.010;2023-05-10T00:55:00;7.63;;;3.92;;
79412;SDS011;68863;49.528;11.010;2023-05-10T00:56:01;7.47;;;3.88;;
79412;SDS011;68863;49.528;11.010;2023-05-10T00:57:03;6.18;;;3.35;;
79412;SDS011;68863;49.528;11.010;2023-05-10T00:58:04;7.88;;;3.83;;
79412;SDS011;68863;49.528;11.010;2023-05-10T00:59:04;7.55;;;3.80;;
79412;SDS011;68863;49.528;11.010;2023-05-10T01:00:05;7.55;;;3.92;;
79412;SDS011;68863;49.528;11.010;2023-05-10T01:01:06;7.40;;;3.60;;
79412;SDS011;68863;49.528;11.010;2023-05-10T01:02:07;8.57;;;3.95;;
79412;SDS011;68863;49.528;11.010;2023-05-10T01:03:07;7.68;;;4.10;;
79412;SDS011;68863;49.528;11.010;2023-05-10T01:04:08;8.10;;;3.70;;
79412;SDS011;68863;49.528;11.010;2023-05-10T01:05:10;7.03;;;4.13;;
79412;SDS011;68863;49.528;11.010;2023-05-10T01:06:11;8.70;;;4.00;;
79412;SDS011;68863;49.528;11.010;2023-05-10T01:07:12;8.15;;;3.50;;
79412;SDS011;68863;49.528;11.010;2023-05-10T01:08:12;7.25;;;3.85;;
79412;SDS011;68863;49.528;11.010;2023-05-10T01:09:13;7.93;;;4.00;;
79412;SDS011;68863;49.528;11.010;2023-05-10T01:10:13;7.35;;;3.78;;
79412;SDS011;68863;49.528;11.010;2023-05-10T01:11:14;9.02;;;4.22;;
79412;SDS011;68863;49.528;11.010;2023-05-10T01:12:15;7.03;;;4.10;;
79412;SDS011;68863;49.528;11.010;2023-05-10T01:13:18;6.88;;;3.80;;
79412;SDS011;68863;49.528;11.010;2023-05-10T01:14:30;8.55;;;4.15;;
79412;SDS011;68863;49.528;11.010;2023-05-10T01:15:30;6.50;;;3.90;;
79412;SDS011;68863;49.528;11.010;2023-05-10T01:16:32;7.72;;;3.60;;
79412;SDS011;68863;49.528;11.010;2023-05-10T01:17:36;8.07;;;4.57;;
79412;SDS011;68863;49.528;11.010;2023-05-10T01:18:39;7.00;;;3.83;;
79412;SDS011;68863;49.528;11.010;2023-05-10T01:20:43;7.50;;;3.92;;
79412;SDS011;68863;49.528;11.010;2023-05-10T01:21:54;7.07;;;4.05;;
79412;SDS011;68863;49.528;11.010;2023-05-10T01:31:48;7.20;;;3.55;;
79412;SDS011;68863;49.528;11.010;2023-05-10T01:33:00;7.93;;;3.90;;
79412;SDS011;68863;49.528;11.010;2023-05-10T01:34:09;9.38;;;4.78;;
79412;SDS011;68863;49.528;11.010;2023-05-10T01:35:17;8.07;;;3.95;;
79412;SDS011;68863;49.528;11.010;2023-05-10T01:37:37;8.80;;;4.13;;
79412;SDS011;68863;49.528;11.010;2023-05-10T01:38:43;9.02;;;4.25;;
79412;SDS011;68863;49.528;11.010;2023-05-10T01:39:54;8.43;;;3.70;;
79412;SDS011;68863;49.528;11.010;2023-05-10T01:41:03;6.78;;;3.72;;
79412;SDS011;68863;49.528;11.010;2023-05-10T01:42:23;7.75;;;4.15;;
79412;SDS011;68863;49.528;11.010;2023-05-10T01:43:28;7.18;;;4.15;;
79412;SDS011;68863;49.528;11.010;2023-05-10T01:44:35;8.07;;;4.00;;
79412;SDS011;68863;49.528;11.010;2023-05-10T01:45:41;8.80;;;4.50;;
79412;SDS011;68863;49.528;11.010;2023-05-10T01:46:53;8.27;;;4.10;;
79412;SDS011;68863;49.528;11.010;2023-05-10T01:48:08;7.95;;;3.80;;
79412;SDS011;68863;49.528;11.010;2023-05-10T01:49:11;10.15;;;4.30;;
79412;SDS011;68863;49.528;11.010;2023-05-10T01:50:19;8.23;;;3.90;;
79412;SDS011;68863;49.528;11.010;2023-05-10T01:51:25;8.10;;;3.83;;
79412;SDS011;68863;49.528;11.010;2023-05-10T01:52:30;8.27;;;4.05;;
79412;SDS011;68863;49.528;11.010;2023-05-10T01:53:33;8.00;;;4.30;;
79412;SDS011;68863;49.528;11.010;2023-05-10T01:54:42;9.45;;;4.15;;
79412;SDS011;68863;49.528;11.010;2023-05-10T01:55:50;8.90;;;3.85;;
79412;SDS011;68863;49.528;11.010;2023-05-10T01:56:59;8.27;;;4.40;;
79412;SDS011;68863;49.528;11.010;2023-05-10T01:58:07;6.28;;;3.60;;
79412;SDS011;68863;49.528;11.010;2023-05-10T01:59:11;6.82;;;3.67;;
79412;SDS011;68863;49.528;11.010;2023-05-10T02:00:15;6.63;;;4.53;;
79412;SDS011;68863;49.528;11.010;2023-05-10T02:01:16;7.40;;;4.00;;
79412;SDS011;68863;49.528;11.010;2023-05-10T02:02:20;6.82;;;3.58;;
79412;SDS011;68863;49.528;11.010;2023-05-10T02:03:23;8.05;;;3.47;;
79412;SDS011;68863;49.528;11.010;2023-05-10T02:04:24;6.85;;;3.70;;
79412;SDS011;68863;49.528;11.010;2023-05-10T02:05:25;6.50;;;3.53;;
79412;SDS011;68863;49.528;11.010;2023-05-10T02:06:29;5.55;;;3.10;;
79412;SDS011;68863;49.528;11.010;2023-05-10T02:07:33;6.50;;;3.17;;
79412;SDS011;68863;49.528;11.010;2023-05-10T02:08:36;6.32;;;2.88;;
79412;SDS011;68863;49.528;11.010;2023-05-10T02:09:37;6.55;;;3.20;;
79412;SDS011;68863;49.528;11.010;2023-05-10T02:10:38;6.97;;;3.58;;
79412;SDS011;68863;49.528;11.010;2023-05-10T02:11:41;5.97;;;2.75;;
79412;SDS011;68863;49.528;11.010;2023-05-10T02:12:44;5.75;;;3.20;;
79412;SDS011;68863;49.528;11.010;2023-05-10T02:13:47;5.72;;;2.80;;
79412;SDS011;68863;49.528;11.010;2023-05-10T02:14:50;6.30;;;2.92;;
79412;SDS011;68863;49.528;11.010;2023-05-10T02:16:53;6.10;;;2.38;;
79412;SDS011;68863;49.528;11.010;2023-05-10T02:17:55;5.57;;;2.90;;
79412;SDS011;68863;49.528;11.010;2023-05-10T02:19:59;4.95;;;2.22;;
79412;SDS011;68863;49.528;11.010;2023-05-10T02:22:03;4.85;;;2.10;;
79412;SDS011;68863;49.528;11.010;2023-05-10T02:23:03;5.20;;;2.53;;
79412;SDS011;68863;49.528;11.010;2023-05-10T02:24:06;5.30;;;2.45;;
79412;SDS011;68863;49.528;11.010;2023-05-10T02:26:10;4.68;;;2.03;;
79412;SDS011;68863;49.528;11.010;2023-05-10T02:27:11;6.03;;;2.20;;
79412;SDS011;68863;49.528;11.010;2023-05-10T02:28:13;5.07;;;2.13;;
79412;SDS011;68863;49.528;11.010;2023-05-10T02:29:15;5.13;;;2.20;;
79412;SDS011;68863;49.528;11.010;2023-05-10T02:30:16;4.88;;;2.10;;
79412;SDS011;68863;49.528;11.010;2023-05-10T02:31:18;5.10;;;1.75;;
79412;SDS011;68863;49.528;11.010;2023-05-10T02:32:20;4.18;;;1.90;;
79412;SDS011;68863;49.528;11.010;2023-05-10T02:33:22;4.30;;;1.63;;
79412;SDS011;68863;49.528;11.010;2023-05-10T02:34:23;3.70;;;1.30;;
79412;SDS011;68863;49.528;11.010;2023-05-10T02:35:26;3.40;;;1.00;;
79412;SDS011;68863;49.528;11.010;2023-05-10T02:36:27;3.85;;;1.13;;
79412;SDS011;68863;49.528;11.010;2023-05-10T02:37:29;3.55;;;1.25;;
79412;SDS011;68863;49.528;11.010;2023-05-10T02:38:30;4.40;;;1.23;;
79412;SDS011;68863;49.528;11.010;2023-05-10T02:39:32;3.88;;;1.17;;
79412;SDS011;68863;49.528;11.010;2023-05-10T02:40:33;5.55;;;1.60;;
79412;SDS011;68863;49.528;11.010;2023-05-10T02:41:36;4.80;;;1.42;;
79412;SDS011;68863;49.528;11.010;2023-05-10T02:42:38;4.00;;;1.48;;
79412;SDS011;68863;49.528;11.010;2023-05-10T02:43:42;3.85;;;1.38;;
79412;SDS011;68863;49.528;11.010;2023-05-10T02:44:45;3.85;;;1.25;;
79412;SDS011;68863;49.528;11.010;2023-05-10T02:45:48;3.42;;;1.13;;
79412;SDS011;68863;49.528;11.010;2023-05-10T02:46:49;3.90;;;1.40;;
79412;SDS011;68863;49.528;11.010;2023-05-10T02:47:49;4.38;;;1.50;;
79412;SDS011;68863;49.528;11.010;2023-05-10T02:48:50;4.18;;;1.58;;
79412;SDS011;68863;49.528;11.010;2023-05-10T02:49:50;3.97;;;1.35;;
79412;SDS011;68863;49.528;11.010;2023-05-10T02:50:52;3.45;;;1.25;;
79412;SDS011;68863;49.528;11.010;2023-05-10T02:51:56;4.38;;;1.42;;
79412;SDS011;68863;49.528;11.010;2023-05-10T02:53:06;5.15;;;1.73;;
79412;SDS011;68863;49.528;11.010;2023-05-10T02:54:12;4.85;;;2.45;;
79412;SDS011;68863;49.528;11.010;2023-05-10T02:55:19;4.55;;;1.70;;
79412;SDS011;68863;49.528;11.010;2023-05-10T02:56:28;4.10;;;1.50;;
79412;SDS011;68863;49.528;11.010;2023-05-10T02:57:33;4.80;;;1.75;;
79412;SDS011;68863;49.528;11.010;2023-05-10T02:58:38;4.70;;;2.35;;
79412;SDS011;68863;49.528;11.010;2023-05-10T02:59:38;3.97;;;1.30;;
79412;SDS011;68863;49.528;11.010;2023-05-10T03:00:39;3.17;;;0.98;;
79412;SDS011;68863;49.528;11.010;2023-05-10T03:01:40;4.27;;;1.20;;
79412;SDS011;68863;49.528;11.010;2023-05-10T03:02:40;4.00;;;1.35;;
79412;SDS011;68863;49.528;11.010;2023-05-10T03:03:41;3.15;;;1.02;;
79412;SDS011;68863;49.528;11.010;2023-05-10T03:04:41;3.47;;;1.00;;
79412;SDS011;68863;49.528;11.010;2023-05-10T03:05:42;3.70;;;1.10;;
79412;SDS011;68863;49.528;11.010;2023-05-10T03:06:42;4.03;;;1.33;;
79412;SDS011;68863;49.528;11.010;2023-05-10T03:07:43;3.67;;;1.35;;
79412;SDS011;68863;49.528;11.010;2023-05-10T03:08:44;3.67;;;1.40;;
79412;SDS011;68863;49.528;11.010;2023-05-10T03:09:45;3.50;;;1.05;;
79412;SDS011;68863;49.528;11.010;2023-05-10T03:16:32;3.83;;;1.00;;
79412;SDS011;68863;49.528;11.010;2023-05-10T03:17:45;3.85;;;1.00;;
79412;SDS011;68863;49.528;11.010;2023-05-10T03:18:48;3.10;;;1.15;;
79412;SDS011;68863;49.528;11.010;2023-05-10T03:19:55;2.75;;;0.60;;
79412;SDS011;68863;49.528;11.010;2023-05-10T03:20:59;2.50;;;0.65;;
79412;SDS011;68863;49.528;11.010;2023-05-10T03:22:03;2.92;;;0.82;;
79412;SDS011;68863;49.528;11.010;2023-05-10T03:23:26;2.85;;;0.80;;
79412;SDS011;68863;49.528;11.010;2023-05-10T03:24:34;2.92;;;0.80;;
79412;SDS011;68863;49.528;11.010;2023-05-10T03:25:36;2.25;;;0.90;;
79412;SDS011;68863;49.528;11.010;2023-05-10T03:26:37;2.72;;;0.88;;
79412;SDS011;68863;49.528;11.010;2023-05-10T03:27:40;2.20;;;1.38;;
79412;SDS011;68863;49.528;11.010;2023-05-10T03:28:42;2.40;;;0.70;;
79412;SDS011;68863;49.528;11.010;2023-05-10T03:29:43;2.00;;;0.60;;
79412;SDS011;68863;49.528;11.010;2023-05-10T03:30:46;2.40;;;0.93;;
79412;SDS011;68863;49.528;11.010;2023-05-10T03:31:47;3.70;;;1.00;;
79412;SDS011;68863;49.528;11.010;2023-05-10T03:32:47;3.13;;;1.10;;
79412;SDS011;68863;49.528;11.010;2023-05-10T03:33:48;3.50;;;1.10;;
79412;SDS011;68863;49.528;11.010;2023-05-10T03:34:49;3.10;;;0.88;;
79412;SDS011;68863;49.528;11.010;2023-05-10T03:35:49;2.70;;;0.93;;
79412;SDS011;68863;49.528;11.010;2023-05-10T03:36:50;2.60;;;0.80;;
79412;SDS011;68863;49.528;11.010;2023-05-10T03:37:50;3.17;;;0.98;;
79412;SDS011;68863;49.528;11.010;2023-05-10T03:38:50;3.85;;;0.80;;
79412;SDS011;68863;49.528;11.010;2023-05-10T03:39:51;4.82;;;0.70;;
79412;SDS011;68863;49.528;11.010;2023-05-10T03:40:51;2.20;;;0.60;;
79412;SDS011;68863;49.528;11.010;2023-05-10T03:41:51;2.90;;;0.70;;
79412;SDS011;68863;49.528;11.010;2023-05-10T03:42:51;3.00;;;0.70;;
79412;SDS011;68863;49.528;11.010;2023-05-10T03:43:52;2.33;;;0.73;;
79412;SDS011;68863;49.528;11.010;2023-05-10T03:44:52;1.63;;;0.50;;
79412;SDS011;68863;49.528;11.010;2023-05-10T03:45:52;2.10;;;0.50;;
79412;SDS011;68863;49.528;11.010;2023-05-10T03:46:52;2.17;;;0.77;;
79412;SDS011;68863;49.528;11.010;2023-05-10T03:47:53;2.40;;;0.47;;
79412;SDS011;68863;49.528;11.010;2023-05-10T03:48:53;1.92;;;0.55;;
79412;SDS011;68863;49.528;11.010;2023-05-10T03:49:54;2.50;;;0.30;;
79412;SDS011;68863;49.528;11.010;2023-05-10T03:50:54;1.52;;;0.40;;
79412;SDS011;68863;49.528;11.010;2023-05-10T03:51:54;2.37;;;0.30;;
79412;SDS011;68863;49.528;11.010;2023-05-10T03:52:54;0.88;;;0.20;;
79412;SDS011;68863;49.528;11.010;2023-05-10T03:53:55;0.82;;;0.20;;
79412;SDS011;68863;49.528;11.010;2023-05-10T03:54:55;1.10;;;0.20;;
79412;SDS011;68863;49.528;11.010;2023-05-10T03:55:55;2.05;;;0.20;;
79412;SDS011;68863;49.528;11.010;2023-05-10T03:56:56;1.15;;;0.15;;
79412;SDS011;68863;49.528;11.010;2023-05-10T03:57:59;1.37;;;0.10;;
79412;SDS011;68863;49.528;11.010;2023-05-10T03:58:59;0.75;;;0.20;;
79412;SDS011;68863;49.528;11.010;2023-05-10T03:59:59;1.00;;;0.25;;
79412;SDS011;68863;49.528;11.010;2023-05-10T04:01:00;1.42;;;0.30;;
79412;SDS011;68863;49.528;11.010;2023-05-10T04:02:00;1.10;;;0.20;;
79412;SDS011;68863;49.528;11.010;2023-05-10T04:03:00;2.10;;;0.20;;
79412;SDS011;68863;49.528;11.010;2023-05-10T04:04:00;0.90;;;0.30;;
79412;SDS011;68863;49.528;11.010;2023-05-10T04:05:01;2.25;;;0.20;;
79412;SDS011;68863;49.528;11.010;2023-05-10T04:06:02;1.27;;;0.30;;
79412;SDS011;68863;49.528;11.010;2023-05-10T04:07:03;0.80;;;0.30;;
79412;SDS011;68863;49.528;11.010;2023-05-10T04:08:03;1.10;;;0.22;;
79412;SDS011;68863;49.528;11.010;2023-05-10T04:09:04;1.85;;;0.10;;
79412;SDS011;68863;49.528;11.010;2023-05-10T04:10:04;0.80;;;0.17;;
79412;SDS011;68863;49.528;11.010;2023-05-10T04:11:08;2.10;;;0.20;;
79412;SDS011;68863;49.528;11.010;2023-05-10T04:12:10;0.82;;;0.20;;
79412;SDS011;68863;49.528;11.010;2023-05-10T04:13:10;2.72;;;0.10;;
79412;SDS011;68863;49.528;11.010;2023-05-10T04:14:11;1.08;;;0.20;;
79412;SDS011;68863;49.528;11.010;2023-05-10T04:15:11;0.55;;;0.10;;
79412;SDS011;68863;49.528;11.010;2023-05-10T04:16:11;1.50;;;0.20;;
79412;SDS011;68863;49.528;11.010;2023-05-10T04:17:11;1.27;;;0.20;;
79412;SDS011;68863;49.528;11.010;2023-05-10T04:18:12;1.73;;;0.20;;
79412;SDS011;68863;49.528;11.010;2023-05-10T04:19:12;1.70;;;0.23;;
79412;SDS011;68863;49.528;11.010;2023-05-10T04:20:12;1.02;;;0.22;;
79412;SDS011;68863;49.528;11.010;2023-05-10T04:21:13;0.77;;;0.20;;
79412;SDS011;68863;49.528;11.010;2023-05-10T04:22:14;1.90;;;0.20;;
79412;SDS011;68863;49.528;11.010;2023-05-10T04:23:14;1.37;;;0.20;;
79412;SDS011;68863;49.528;11.010;2023-05-10T04:24:16;0.65;;;0.15;;
79412;SDS011;68863;49.528;11.010;2023-05-10T04:25:16;1.90;;;0.20;;
79412;SDS011;68863;49.528;11.010;2023-05-10T04:26:17;0.87;;;0.20;;
79412;SDS011;68863;49.528;11.010;2023-05-10T04:27:17;1.17;;;0.20;;
79412;SDS011;68863;49.528;11.010;2023-05-10T04:28:17;0.63;;;0.30;;
79412;SDS011;68863;49.528;11.010;2023-05-10T04:29:18;1.27;;;0.20;;
79412;SDS011;68863;49.528;11.010;2023-05-10T04:30:18;1.00;;;0.20;;
79412;SDS011;68863;49.528;11.010;2023-05-10T04:31:18;1.27;;;0.13;;
79412;SDS011;68863;49.528;11.010;2023-05-10T04:32:19;0.70;;;0.20;;
79412;SDS011;68863;49.528;11.010;2023-05-10T04:33:20;0.77;;;0.20;;
79412;SDS011;68863;49.528;11.010;2023-05-10T04:34:20;0.77;;;0.20;;
79412;SDS011;68863;49.528;11.010;2023-05-10T04:35:21;0.57;;;0.10;;
79412;SDS011;68863;49.528;11.010;2023-05-10T04:36:21;1.10;;;0.32;;
79412;SDS011;68863;49.528;11.010;2023-05-10T04:37:21;0.90;;;0.20;;
79412;SDS011;68863;49.528;11.010;2023-05-10T04:38:22;0.80;;;0.20;;
79412;SDS011;68863;49.528;11.010;2023-05-10T04:39:23;1.10;;;0.25;;
79412;SDS011;68863;49.528;11.010;2023-05-10T04:40:23;0.87;;;0.17;;
79412;SDS011;68863;49.528;11.010;2023-05-10T04:41:24;0.45;;;0.20;;
79412;SDS011;68863;49.528;11.010;2023-05-10T04:42:25;0.95;;;0.40;;
79412;SDS011;68863;49.528;11.010;2023-05-10T04:43:26;0.90;;;0.30;;
79412;SDS011;68863;49.528;11.010;2023-05-10T04:44:26;1.10;;;0.73;;
79412;SDS011;68863;49.528;11.010;2023-05-10T04:45:26;0.70;;;0.20;;
79412;SDS011;68863;49.528;11.010;2023-05-10T04:46:26;0.90;;;0.20;;
79412;SDS011;68863;49.528;11.010;2023-05-10T04:47:27;0.98;;;0.30;;
79412;SDS011;68863;49.528;11.010;2023-05-10T04:48:27;1.53;;;0.40;;
79412;SDS011;68863;49.528;11.010;2023-05-10T04:49:28;1.52;;;0.32;;
79412;SDS011;68863;49.528;11.010;2023-05-10T04:50:28;1.33;;;0.22;;
79412;SDS011;68863;49.528;11.010;2023-05-10T04:51:29;0.60;;;0.20;;
79412;SDS011;68863;49.528;11.010;2023-05-10T04:52:29;1.60;;;0.30;;
79412;SDS011;68863;49.528;11.010;2023-05-10T04:53:32;2.05;;;0.32;;
79412;SDS011;68863;49.528;11.010;2023-05-10T04:54:32;0.80;;;0.25;;
79412;SDS011;68863;49.528;11.010;2023-05-10T04:55:33;0.50;;;0.10;;
79412;SDS011;68863;49.528;11.010;2023-05-10T04:56:33;2.47;;;0.40;;
79412;SDS011;68863;49.528;11.010;2023-05-10T04:57:33;1.40;;;0.30;;
79412;SDS011;68863;49.528;11.010;2023-05-10T04:58:33;1.50;;;0.30;;
79412;SDS011;68863;49.528;11.010;2023-05-10T04:59:35;1.07;;;0.30;;
79412;SDS011;68863;49.528;11.010;2023-05-10T05:00:37;0.82;;;0.30;;
79412;SDS011;68863;49.528;11.010;2023-05-10T05:01:37;1.80;;;0.30;;
79412;SDS011;68863;49.528;11.010;2023-05-10T05:02:37;1.07;;;0.27;;
79412;SDS011;68863;49.528;11.010;2023-05-10T05:03:38;2.13;;;0.43;;
79412;SDS011;68863;49.528;11.010;2023-05-10T05:04:38;1.57;;;0.40;;
79412;SDS011;68863;49.528;11.010;2023-05-10T05:05:38;1.48;;;0.40;;
79412;SDS011;68863;49.528;11.010;2023-05-10T05:06:38;1.75;;;0.35;;
79412;SDS011;68863;49.528;11.010;2023-05-10T05:07:39;0.98;;;0.30;;
79412;SDS011;68863;49.528;11.010;2023-05-10T05:08:39;0.88;;;0.30;;
79412;SDS011;68863;49.528;11.010;2023-05-10T05:09:39;1.80;;;0.30;;
79412;SDS011;68863;49.528;11.010;2023-05-10T05:10:40;1.45;;;0.43;;
79412;SDS011;68863;49.528;11.010;2023-05-10T05:11:40;1.27;;;0.30;;
79412;SDS011;68863;49.528;11.010;2023-05-10T05:12:40;1.63;;;0.30;;
79412;SDS011;68863;49.528;11.010;2023-05-10T05:13:40;1.17;;;0.30;;
79412;SDS011;68863;49.528;11.010;2023-05-10T05:14:41;1.75;;;0.30;;
79412;SDS011;68863;49.528;11.010;2023-05-10T05:15:41;0.90;;;0.30;;
79412;SDS011;68863;49.528;11.010;2023-05-10T05:16:41;1.20;;;0.30;;
79412;SDS011;68863;49.528;11.010;2023-05-10T05:17:42;1.58;;;0.47;;
79412;SDS011;68863;49.528;11.010;2023-05-10T05:18:45;1.92;;;0.80;;
79412;SDS011;68863;49.528;11.010;2023-05-10T05:19:45;1.33;;;0.30;;
79412;SDS011;68863;49.528;11.010;2023-05-10T05:20:45;1.13;;;0.40;;
79412;SDS011;68863;49.528;11.010;2023-05-10T05:21:46;2.67;;;0.40;;
79412;SDS011;68863;49.528;11.010;2023-05-10T05:22:46;0.95;;;0.30;;
79412;SDS011;68863;49.528;11.010;2023-05-10T05:23:46;3.43;;;0.40;;
79412;SDS011;68863;49.528;11.010;2023-05-10T05:24:47;0.93;;;0.30;;
79412;SDS011;68863;49.528;11.010;2023-05-10T05:25:47;1.43;;;0.30;;
79412;SDS011;68863;49.528;11.010;2023-05-10T05:26:47;1.38;;;0.30;;
79412;SDS011;68863;49.528;11.010;2023-05-10T05:27:48;1.23;;;0.30;;
79412;SDS011;68863;49.528;11.010;2023-05-10T05:28:48;1.70;;;0.47;;
79412;SDS011;68863;49.528;11.010;2023-05-10T05:29:57;1.85;;;0.30;;
79412;SDS011;68863;49.528;11.010;2023-05-10T05:30:58;1.35;;;0.30;;
79412;SDS011;68863;49.528;11.010;2023-05-10T05:31:58;1.47;;;0.40;;
79412;SDS011;68863;49.528;11.010;2023-05-10T05:32:58;1.00;;;0.30;;
79412;SDS011;68863;49.528;11.010;2023-05-10T05:33:59;1.80;;;0.30;;
79412;SDS011;68863;49.528;11.010;2023-05-10T05:34:59;1.42;;;0.30;;
79412;SDS011;68863;49.528;11.010;2023-05-10T05:36:03;1.52;;;0.30;;
79412;SDS011;68863;49.528;11.010;2023-05-10T05:37:04;1.45;;;0.50;;
79412;SDS011;68863;49.528;11.010;2023-05-10T05:38:05;1.15;;;0.30;;
79412;SDS011;68863;49.528;11.010;2023-05-10T05:39:06;1.65;;;0.40;;
79412;SDS011;68863;49.528;11.010;2023-05-10T05:40:06;1.10;;;0.30;;
79412;SDS011;68863;49.528;11.010;2023-05-10T05:41:07;1.27;;;0.30;;
79412;SDS011;68863;49.528;11.010;2023-05-10T05:42:07;1.13;;;0.40;;
79412;SDS011;68863;49.528;11.010;2023-05-10T05:43:08;1.33;;;0.40;;
79412;SDS011;68863;49.528;11.010;2023-05-10T05:44:09;1.27;;;0.30;;
79412;SDS011;68863;49.528;11.010;2023-05-10T05:45:12;1.08;;;0.30;;
79412;SDS011;68863;49.528;11.010;2023-05-10T05:46:12;1.50;;;0.30;;
79412;SDS011;68863;49.528;11.010;2023-05-10T05:47:13;1.90;;;0.50;;
79412;SDS011;68863;49.528;11.010;2023-05-10T05:48:13;1.27;;;0.30;;
79412;SDS011;68863;49.528;11.010;2023-05-10T05:49:13;1.90;;;0.50;;
79412;SDS011;68863;49.528;11.010;2023-05-10T05:50:14;1.95;;;0.57;;
79412;SDS011;68863;49.528;11.010;2023-05-10T05:51:14;1.88;;;0.40;;
79412;SDS011;68863;49.528;11.010;2023-05-10T05:52:14;1.63;;;0.40;;
79412;SDS011;68863;49.528;11.010;2023-05-10T05:53:14;4.07;;;0.30;;
79412;SDS011;68863;49.528;11.010;2023-05-10T05:54:15;1.65;;;0.40;;
79412;SDS011;68863;49.528;11.010;2023-05-10T05:55:16;1.70;;;0.50;;
79412;SDS011;68863;49.528;11.010;2023-05-10T05:56:16;1.90;;;0.40;;
79412;SDS011;68863;49.528;11.010;2023-05-10T05:57:23;2.63;;;0.50;;
79412;SDS011;68863;49.528;11.010;2023-05-10T05:58:24;3.03;;;0.65;;
79412;SDS011;68863;49.528;11.010;2023-05-10T05:59:26;1.33;;;0.50;;
79412;SDS011;68863;49.528;11.010;2023-05-10T06:00:26;1.77;;;0.40;;
79412;SDS011;68863;49.528;11.010;2023-05-10T06:01:27;1.27;;;0.43;;
79412;SDS011;68863;49.528;11.010;2023-05-10T06:02:27;2.80;;;0.63;;
79412;SDS011;68863;49.528;11.010;2023-05-10T06:03:27;2.72;;;0.60;;
79412;SDS011;68863;49.528;11.010;2023-05-10T06:04:27;1.77;;;0.50;;
79412;SDS011;68863;49.528;11.010;2023-05-10T06:05:28;1.70;;;0.47;;
79412;SDS011;68863;49.528;11.010;2023-05-10T06:06:28;1.97;;;0.50;;
79412;SDS011;68863;49.528;11.010;2023-05-10T06:07:28;2.20;;;0.60;;
79412;SDS011;68863;49.528;11.010;2023-05-10T06:08:29;2.03;;;0.50;;
79412;SDS011;68863;49.528;11.010;2023-05-10T06:09:29;1.35;;;0.40;;
79412;SDS011;68863;49.528;11.010;2023-05-10T06:10:29;1.60;;;0.43;;
79412;SDS011;68863;49.528;11.010;2023-05-10T06:11:30;1.92;;;0.60;;
79412;SDS011;68863;49.528;11.010;2023-05-10T06:12:32;2.08;;;0.50;;
79412;SDS011;68863;49.528;11.010;2023-05-10T06:13:32;1.40;;;0.50;;
79412;SDS011;68863;49.528;11.010;2023-05-10T06:14:33;2.28;;;0.68;;
79412;SDS011;68863;49.528;11.010;2023-05-10T06:15:33;1.90;;;0.50;;
79412;SDS011;68863;49.528;11.010;2023-05-10T06:16:34;1.95;;;0.50;;
79412;SDS011;68863;49.528;11.010;2023-05-10T06:17:35;2.50;;;0.65;;
79412;SDS011;68863;49.528;11.010;2023-05-10T06:18:35;2.00;;;0.40;;
79412;SDS011;68863;49.528;11.010;2023-05-10T06:19:35;2.70;;;0.50;;
79412;SDS011;68863;49.528;11.010;2023-05-10T06:20:36;2.10;;;0.43;;
79412;SDS011;68863;49.528;11.010;2023-05-10T06:21:36;2.23;;;0.60;;
79412;SDS011;68863;49.528;11.010;2023-05-10T06:22:37;2.65;;;0.98;;
79412;SDS011;68863;49.528;11.010;2023-05-10T06:23:37;1.42;;;0.40;;
79412;SDS011;68863;49.528;11.010;2023-05-10T06:24:37;2.30;;;0.40;;
79412;SDS011;68863;49.528;11.010;2023-05-10T06:25:37;1.60;;;0.50;;
79412;SDS011;68863;49.528;11.010;2023-05-10T06:26:38;2.07;;;0.60;;